createdAt,value
2018-10-16T14:04:26.561Z,2.30
2018-10-16T14:05:26.546Z,1.80
2018-10-16T14:06:26.551Z,1.70
2018-10-16T14:07:26.559Z,1.80
2018-10-16T14:08:26.568Z,1.80
2018-10-16T14:09:26.571Z,1.80
2018-10-16T14:10:26.578Z,1.80
2018-10-16T14:11:26.632Z,1.70
2018-10-16T14:12:26.590Z,1.80
2018-10-16T14:13:26.597Z,1.70
2018-10-16T14:14:26.604Z,1.80
2018-10-16T14:15:26.608Z,1.70
2018-10-16T14:16:26.613Z,1.90
2018-10-16T14:17:26.619Z,1.70
2018-10-16T14:18:26.640Z,2.10
2018-10-16T14:19:26.631Z,1.70
2018-10-16T14:20:26.634Z,1.70
2018-10-16T14:21:26.640Z,2.00
2018-10-16T14:22:26.649Z,1.70
2018-10-16T14:23:26.671Z,1.80
2018-10-16T14:24:26.658Z,1.90
2018-10-16T14:25:26.663Z,1.70
2018-10-16T14:26:26.724Z,1.70
2018-10-16T14:27:26.674Z,1.80
2018-10-16T14:28:26.684Z,1.80
2018-10-16T14:29:26.684Z,1.60
2018-10-16T14:30:26.688Z,1.80
2018-10-16T14:31:26.695Z,1.90
2018-10-16T14:32:26.698Z,1.70
2018-10-16T14:33:26.705Z,1.80
2018-10-16T14:34:26.813Z,1.90
2018-10-16T14:35:26.724Z,2.10
2018-10-16T14:36:26.743Z,1.80
2018-10-16T14:37:26.742Z,1.70
2018-10-16T14:38:26.736Z,1.70
2018-10-16T14:39:26.738Z,1.90
2018-10-16T14:40:26.771Z,1.80
2018-10-16T14:41:26.746Z,1.70
2018-10-16T14:42:26.753Z,1.80
2018-10-16T14:43:26.756Z,1.80
2018-10-16T14:44:26.760Z,1.60
2018-10-16T14:45:26.766Z,2.00
2018-10-16T14:46:26.878Z,1.90
2018-10-16T14:47:26.781Z,2.00
2018-10-16T14:48:26.779Z,1.60
2018-10-16T14:49:26.785Z,1.70
2018-10-16T14:50:26.797Z,1.70
2018-10-16T14:51:26.798Z,2.00
2018-10-16T14:52:26.798Z,1.80
2018-10-16T14:53:26.807Z,2.10
2018-10-16T14:54:26.810Z,1.80
2018-10-16T14:55:26.817Z,2.00
2018-10-16T14:56:26.819Z,2.10
2018-10-16T14:57:26.878Z,2.00
2018-10-16T14:58:26.829Z,1.80
2018-10-16T14:59:26.835Z,2.00
2018-10-16T15:00:26.919Z,2.00
2018-10-16T15:01:26.843Z,1.70
2018-10-16T15:02:26.849Z,1.80
2018-10-16T15:03:26.884Z,1.90
2018-10-16T15:04:26.865Z,1.90
2018-10-16T15:05:26.862Z,1.80
2018-10-16T15:06:26.886Z,1.80
2018-10-16T15:07:26.883Z,1.80
2018-10-16T15:08:26.878Z,2.00
2018-10-16T15:09:26.896Z,2.20
2018-10-16T15:10:26.956Z,1.80
2018-10-16T15:11:26.910Z,2.00
2018-10-16T15:12:26.916Z,1.80
2018-10-16T15:13:26.914Z,1.70
2018-10-16T15:14:26.912Z,1.80
2018-10-16T15:15:26.934Z,1.80
2018-10-16T15:16:26.962Z,1.80
2018-10-16T15:17:26.926Z,1.90
2018-10-16T15:18:26.939Z,1.90
2018-10-16T15:19:26.935Z,1.80
2018-10-16T15:20:26.939Z,1.70
2018-10-16T15:21:26.944Z,1.80
2018-10-16T15:22:26.948Z,1.90
2018-10-16T15:23:26.976Z,2.50
2018-10-16T15:24:26.956Z,1.80
2018-10-16T15:25:26.960Z,1.60
2018-10-16T15:26:26.964Z,1.80
2018-10-16T15:27:26.980Z,1.70
2018-10-16T15:28:26.977Z,1.80
2018-10-16T15:29:26.980Z,1.60
2018-10-16T15:30:26.986Z,1.70
2018-10-16T15:31:26.990Z,1.60
2018-10-16T15:32:26.994Z,2.10
2018-10-16T15:33:27.000Z,1.70
2018-10-16T15:34:27.007Z,1.60
2018-10-16T15:35:27.008Z,1.70
2018-10-16T15:36:27.026Z,1.80
2018-10-16T15:37:27.020Z,1.60
2018-10-16T15:38:27.025Z,1.70
2018-10-16T15:39:27.028Z,2.20
2018-10-16T15:40:27.033Z,2.00
2018-10-16T15:41:27.038Z,1.70
2018-10-16T15:42:27.045Z,1.80
2018-10-16T15:43:27.092Z,1.70
2018-10-16T15:44:27.059Z,1.70
2018-10-16T15:45:27.055Z,1.70
2018-10-16T15:46:27.083Z,1.60
2018-10-16T15:47:27.066Z,1.70
2018-10-16T15:48:27.082Z,1.80
2018-10-16T15:49:27.110Z,1.70
2018-10-16T15:50:27.079Z,1.90
2018-10-16T15:51:27.084Z,1.80
2018-10-16T15:52:27.088Z,1.60
2018-10-16T15:53:27.099Z,1.60
2018-10-16T15:54:27.100Z,1.60
2018-10-16T15:55:27.109Z,1.80
2018-10-16T15:56:27.108Z,1.80
2018-10-16T15:57:27.113Z,1.80
2018-10-16T15:58:27.118Z,1.60
2018-10-16T15:59:27.122Z,1.70
2018-10-16T16:00:27.152Z,1.60
2018-10-16T16:01:27.160Z,1.70
2018-10-16T16:02:27.171Z,1.80
2018-10-16T16:03:27.140Z,1.70
2018-10-16T16:04:27.142Z,1.70
2018-10-16T16:05:27.155Z,1.70
2018-10-16T16:06:27.181Z,1.70
2018-10-16T16:07:27.159Z,1.50
2018-10-16T16:08:27.167Z,1.80
2018-10-16T16:09:27.166Z,1.50
2018-10-16T16:10:27.179Z,1.80
2018-10-16T16:11:27.177Z,1.50
2018-10-16T16:12:27.202Z,1.60
2018-10-16T16:13:27.191Z,1.60
2018-10-16T16:14:27.225Z,1.50
2018-10-16T16:15:27.194Z,1.60
2018-10-16T16:16:27.197Z,1.70
2018-10-16T16:17:27.276Z,1.50
2018-10-16T16:18:27.256Z,1.70
2018-10-16T16:19:27.211Z,1.70
2018-10-16T16:20:27.249Z,1.60
2018-10-16T16:21:27.224Z,1.60
2018-10-16T16:22:27.227Z,1.80
2018-10-16T16:23:27.228Z,1.70
2018-10-16T16:24:27.233Z,1.70
2018-10-16T16:25:27.241Z,1.80
2018-10-16T16:26:27.245Z,1.70
2018-10-16T16:27:27.292Z,1.70
2018-10-16T16:28:27.251Z,1.70
2018-10-16T16:29:27.256Z,1.50
2018-10-16T16:30:27.261Z,1.80
2018-10-16T16:31:27.265Z,1.80
2018-10-16T16:32:27.275Z,1.80
2018-10-16T16:33:27.275Z,1.60
2018-10-16T16:34:27.279Z,1.80
2018-10-16T16:35:27.283Z,1.80
2018-10-16T16:36:27.325Z,1.80
2018-10-16T16:37:27.311Z,1.70
2018-10-16T16:38:27.296Z,1.60
2018-10-16T16:39:27.379Z,1.60
2018-10-16T16:40:27.302Z,1.40
2018-10-16T16:41:27.308Z,1.80
2018-10-16T16:43:09.179Z,1.60
2018-10-16T16:44:09.300Z,1.50
2018-10-16T16:45:09.189Z,1.60
2018-10-16T16:46:09.235Z,1.60
2018-10-16T16:47:09.210Z,1.40
2018-10-16T16:48:09.201Z,1.60
2018-10-16T16:49:09.206Z,1.60
2018-10-16T16:50:09.279Z,1.70
2018-10-16T16:51:09.256Z,1.50
2018-10-16T16:52:09.439Z,1.60
2018-10-16T16:53:09.343Z,1.60
2018-10-16T16:54:09.226Z,1.80
2018-10-16T16:55:09.231Z,1.50
2018-10-16T16:56:09.308Z,1.80
2018-10-16T16:57:09.243Z,1.70
2018-10-16T16:58:09.326Z,1.50
2018-10-16T16:59:09.316Z,1.70
2018-10-16T17:00:09.250Z,1.60
2018-10-16T17:01:09.255Z,1.50
2018-10-16T17:02:09.396Z,1.70
2018-10-16T17:03:09.265Z,1.50
2018-10-16T17:04:09.307Z,1.50
2018-10-16T17:05:09.271Z,1.60
2018-10-16T17:06:09.282Z,1.60
2018-10-16T17:07:09.279Z,1.60
2018-10-16T17:08:09.379Z,1.90
2018-10-16T17:09:09.287Z,1.80
2018-10-16T17:10:09.367Z,1.80
2018-10-16T17:11:09.296Z,1.90
2018-10-16T17:12:09.301Z,1.80
2018-10-16T17:13:09.306Z,1.60
2018-10-16T17:14:09.423Z,2.00
2018-10-16T17:15:09.314Z,1.60
2018-10-16T17:16:09.368Z,1.60
2018-10-16T17:17:09.322Z,1.60
2018-10-16T17:18:09.354Z,1.90
2018-10-16T17:19:09.332Z,1.90
2018-10-16T17:20:09.419Z,1.90
2018-10-16T17:21:09.337Z,1.60
2018-10-16T17:22:09.498Z,1.70
2018-10-16T17:23:09.345Z,1.70
2018-10-16T17:24:09.355Z,1.70
2018-10-16T17:25:09.482Z,1.70
2018-10-16T17:26:09.598Z,1.60
2018-10-16T17:27:09.362Z,1.80
2018-10-16T17:28:09.432Z,1.60
2018-10-16T17:29:09.371Z,1.70
2018-10-16T17:30:09.375Z,1.90
2018-10-16T17:31:09.380Z,1.80
2018-10-16T17:32:09.384Z,1.60
2018-10-16T17:33:09.459Z,1.60
2018-10-16T17:34:09.461Z,1.70
2018-10-16T17:35:09.397Z,1.70
2018-10-16T17:36:09.397Z,1.70
2018-10-16T17:37:09.405Z,1.60
2018-10-16T17:38:09.492Z,1.60
2018-10-16T17:39:09.546Z,1.90
2018-10-16T17:40:09.416Z,1.60
2018-10-16T17:41:09.420Z,1.70
2018-10-16T17:42:09.425Z,1.90
2018-10-16T17:43:09.429Z,1.80
2018-10-16T17:44:09.432Z,1.60
2018-10-16T17:45:09.516Z,1.70
2018-10-16T17:46:09.508Z,1.60
2018-10-16T17:47:09.447Z,1.70
2018-10-16T17:48:09.528Z,1.80
2018-10-16T17:49:09.452Z,1.70
2018-10-16T17:50:09.458Z,1.70
2018-10-16T17:51:09.494Z,1.60
2018-10-16T17:52:09.464Z,1.80
2018-10-16T17:53:09.470Z,1.80
2018-10-16T17:54:09.471Z,1.70
2018-10-16T17:55:09.477Z,1.80
2018-10-16T17:56:09.479Z,1.50
2018-10-16T17:57:09.587Z,1.60
2018-10-16T17:58:09.489Z,1.60
2018-10-16T17:59:09.494Z,1.60
2018-10-16T18:00:09.495Z,1.70
2018-10-16T18:01:09.500Z,1.70
2018-10-16T18:02:09.504Z,1.70
2018-10-16T18:03:09.545Z,1.50
2018-10-16T18:04:09.512Z,1.80
2018-10-16T18:05:09.515Z,1.50
2018-10-16T18:06:09.519Z,1.60
2018-10-16T18:07:09.524Z,1.70
2018-10-16T18:08:09.531Z,1.60
2018-10-16T18:09:09.682Z,1.80
2018-10-16T18:10:09.537Z,1.40
2018-10-16T18:11:09.540Z,1.60
2018-10-16T18:12:09.544Z,1.30
2018-10-16T18:13:09.548Z,1.50
2018-10-16T18:14:09.552Z,1.60
2018-10-16T18:15:09.619Z,1.30
2018-10-16T18:16:09.559Z,1.40
2018-10-16T18:17:09.563Z,1.50
2018-10-16T18:18:51.439Z,1.40
2018-10-16T18:19:51.441Z,1.50
2018-10-16T18:20:51.476Z,1.80
2018-10-16T18:21:51.449Z,1.70
2018-10-16T18:22:51.520Z,1.50
2018-10-16T18:23:51.551Z,1.40
2018-10-16T18:24:51.461Z,1.70
2018-10-16T18:25:51.537Z,1.70
2018-10-16T18:26:51.479Z,1.60
2018-10-16T18:27:51.471Z,1.60
2018-10-16T18:28:51.554Z,1.70
2018-10-16T18:29:51.533Z,1.90
2018-10-16T18:30:51.518Z,1.60
2018-10-16T18:31:51.486Z,1.80
2018-10-16T18:32:51.545Z,1.80
2018-10-16T18:33:51.495Z,1.70
2018-10-16T18:34:51.499Z,1.40
2018-10-16T18:35:51.503Z,1.80
2018-10-16T18:36:51.507Z,1.70
2018-10-16T18:37:51.510Z,1.60
2018-10-16T18:38:51.520Z,1.50
2018-10-16T18:39:51.542Z,1.80
2018-10-16T18:40:51.523Z,1.50
2018-10-16T18:41:51.527Z,1.90
2018-10-16T18:42:51.534Z,1.60
2018-10-16T18:43:51.533Z,1.80
2018-10-16T18:44:51.541Z,1.50
2018-10-16T18:45:51.544Z,1.70
2018-10-16T18:46:51.546Z,1.40
2018-10-16T18:47:51.569Z,1.70
2018-10-16T18:48:51.654Z,1.70
2018-10-16T18:49:51.558Z,1.90
2018-10-16T18:50:51.565Z,1.40
2018-10-16T18:51:51.568Z,1.60
2018-10-16T18:52:51.570Z,1.90
2018-10-16T18:53:51.574Z,1.70
2018-10-16T18:54:51.577Z,1.50
2018-10-16T18:55:51.581Z,1.70
2018-10-16T18:56:51.635Z,1.70
2018-10-16T18:57:51.590Z,1.60
2018-10-16T18:58:51.594Z,1.70
2018-10-16T18:59:51.598Z,1.70
2018-10-16T19:00:51.601Z,1.80
2018-10-16T19:01:51.605Z,1.60
2018-10-16T19:02:51.612Z,1.70
2018-10-16T19:03:51.630Z,1.70
2018-10-16T19:04:51.616Z,1.50
2018-10-16T19:05:51.619Z,1.80
2018-10-16T19:06:51.626Z,1.70
2018-10-16T19:07:51.679Z,1.70
2018-10-16T19:08:51.644Z,1.60
2018-10-16T19:09:51.637Z,1.50
2018-10-16T19:10:51.640Z,1.60
2018-10-16T19:11:51.643Z,1.70
2018-10-16T19:12:51.646Z,1.60
2018-10-16T19:13:51.690Z,1.60
2018-10-16T19:14:51.658Z,1.50
2018-10-16T19:15:51.657Z,1.70
2018-10-16T19:16:51.663Z,1.70
2018-10-16T19:17:51.672Z,1.80
2018-10-16T19:18:51.672Z,1.70
2018-10-16T19:19:51.713Z,1.60
2018-10-16T19:20:51.680Z,1.80
2018-10-16T19:21:51.682Z,1.70
2018-10-16T19:22:51.686Z,1.40
2018-10-16T19:23:51.689Z,1.40
2018-10-16T19:24:51.693Z,1.60
2018-10-16T19:25:51.698Z,1.60
2018-10-16T19:26:51.763Z,1.60
2018-10-16T19:27:51.705Z,1.80
2018-10-16T19:28:51.708Z,1.60
2018-10-16T19:29:51.713Z,1.50
2018-10-16T19:30:51.718Z,1.70
2018-10-16T19:31:51.721Z,1.80
2018-10-16T19:32:51.759Z,1.80
2018-10-16T19:33:51.727Z,1.60
2018-10-16T19:34:51.733Z,1.50
2018-10-16T19:35:51.735Z,1.60
2018-10-16T19:36:51.758Z,1.60
2018-10-16T19:37:51.837Z,1.70
2018-10-16T19:38:51.792Z,1.60
2018-10-16T19:39:51.758Z,1.70
2018-10-16T19:40:51.759Z,1.70
2018-10-16T19:41:51.761Z,1.70
2018-10-16T19:42:51.764Z,1.50
2018-10-16T19:43:51.769Z,1.70
2018-10-16T19:44:51.827Z,1.70
2018-10-16T19:45:51.777Z,1.60
2018-10-16T19:46:51.784Z,1.50
2018-10-16T19:47:51.787Z,1.80
2018-10-16T19:48:51.788Z,1.80
2018-10-16T19:49:51.792Z,1.80
2018-10-16T19:50:51.823Z,1.40
2018-10-16T19:51:51.809Z,1.50
2018-10-16T19:52:51.804Z,1.60
2018-10-16T19:53:51.808Z,1.50
2018-10-16T19:54:51.814Z,1.70
2018-10-16T19:55:51.815Z,1.60
2018-10-16T19:56:51.822Z,1.50
2018-10-16T19:57:51.847Z,1.50
2018-10-16T19:58:51.834Z,1.40
2018-10-16T19:59:51.994Z,1.70
2018-10-16T20:00:51.836Z,1.80
2018-10-16T20:01:51.842Z,1.70
2018-10-16T20:02:51.901Z,1.60
2018-10-16T20:03:51.889Z,1.50
2018-10-16T20:04:51.853Z,1.70
2018-10-16T20:05:51.862Z,1.50
2018-10-16T20:06:51.864Z,1.80
2018-10-16T20:07:51.864Z,1.50
2018-10-16T20:08:51.932Z,1.50
2018-10-16T20:09:51.885Z,1.70
2018-10-16T20:10:51.907Z,1.70
2018-10-16T20:11:51.881Z,1.60
2018-10-16T20:12:51.884Z,1.60
2018-10-16T20:13:51.919Z,1.70
2018-10-16T20:14:51.893Z,1.70
2018-10-16T20:15:51.897Z,1.70
2018-10-16T20:16:51.989Z,1.80
2018-10-16T20:17:51.905Z,1.80
2018-10-16T20:18:51.910Z,1.70
2018-10-16T20:19:51.920Z,1.70
2018-10-16T20:20:51.917Z,1.80
2018-10-16T20:21:51.933Z,1.80
2018-10-16T20:22:51.929Z,1.50
2018-10-16T20:23:51.930Z,1.50
2018-10-16T20:24:52.022Z,1.50
2018-10-16T20:25:51.938Z,1.80
2018-10-16T20:26:51.943Z,1.70
2018-10-16T20:27:51.944Z,1.60
2018-10-16T20:28:51.951Z,1.80
2018-10-16T20:29:51.955Z,1.60
2018-10-16T20:30:52.006Z,1.60
2018-10-16T20:31:52.047Z,1.60
2018-10-16T20:32:51.973Z,1.80
2018-10-16T20:33:51.975Z,1.40
2018-10-16T20:34:51.975Z,1.70
2018-10-16T20:35:51.978Z,1.80
2018-10-16T20:36:51.988Z,1.90
2018-10-16T20:37:51.987Z,1.60
2018-10-16T20:38:51.994Z,1.60
2018-10-16T20:39:52.043Z,1.60
2018-10-16T20:40:52.007Z,1.80
2018-10-16T20:41:52.019Z,1.90
2018-10-16T20:42:52.060Z,1.60
2018-10-16T20:43:52.012Z,1.80
2018-10-16T20:44:52.015Z,1.50
2018-10-16T20:45:52.021Z,1.60
2018-10-16T20:46:52.023Z,1.80
2018-10-16T20:47:52.028Z,1.70
2018-10-16T20:48:52.087Z,1.60
2018-10-16T20:49:52.038Z,1.70
2018-10-16T20:50:52.046Z,1.80
2018-10-16T20:51:52.043Z,1.80
2018-10-16T20:52:52.047Z,1.60
2018-10-16T20:53:52.053Z,1.80
2018-10-16T20:54:52.065Z,1.60
2018-10-16T20:55:52.060Z,1.80
2018-10-16T20:56:52.079Z,1.70
2018-10-16T20:57:52.070Z,1.80
2018-10-16T20:58:52.075Z,1.80
2018-10-16T20:59:52.079Z,1.80
2018-10-16T21:00:52.124Z,1.60
2018-10-16T21:01:52.090Z,1.80
2018-10-16T21:02:52.092Z,1.80
2018-10-16T21:03:52.096Z,1.70
2018-10-16T21:04:52.210Z,1.70
2018-10-16T21:05:52.306Z,1.90
2018-10-16T21:06:52.277Z,1.60
2018-10-16T21:07:52.111Z,1.60
2018-10-16T21:08:52.119Z,1.90
2018-10-16T21:09:52.112Z,1.60
2018-10-16T21:10:52.114Z,1.50
2018-10-16T21:11:52.115Z,1.90
2018-10-16T21:12:52.126Z,1.70
2018-10-16T21:13:52.126Z,1.80
2018-10-16T21:14:52.131Z,2.00
2018-10-16T21:15:52.174Z,2.00
2018-10-16T21:16:52.148Z,2.00
2018-10-16T21:17:52.143Z,1.80
2018-10-16T21:18:52.279Z,1.70
2018-10-16T21:19:52.151Z,1.70
2018-10-16T21:20:52.156Z,1.90
2018-10-16T21:21:52.225Z,1.80
2018-10-16T21:22:52.212Z,2.00
2018-10-16T21:23:52.167Z,2.00
2018-10-16T21:24:52.223Z,1.90
2018-10-16T21:25:52.177Z,1.90
2018-10-16T21:26:52.181Z,2.10
2018-10-16T21:27:52.184Z,2.00
2018-10-16T21:28:52.210Z,2.00
2018-10-16T21:29:52.193Z,2.00
2018-10-16T21:30:52.229Z,1.80
2018-10-16T21:31:52.218Z,2.00
2018-10-16T21:32:52.205Z,2.00
2018-10-16T21:33:52.215Z,2.00
2018-10-16T21:34:52.282Z,1.80
2018-10-16T21:35:52.218Z,2.10
2018-10-16T21:36:52.265Z,2.10
2018-10-16T21:37:52.228Z,1.90
2018-10-16T21:38:52.231Z,1.90
2018-10-16T21:39:52.235Z,1.70
2018-10-16T21:40:52.282Z,1.90
2018-10-16T21:41:52.289Z,1.80
2018-10-16T21:42:52.250Z,2.10
2018-10-16T21:43:52.254Z,1.90
2018-10-16T21:44:52.302Z,2.00
2018-10-16T21:45:52.260Z,1.70
2018-10-16T21:46:52.297Z,1.80
2018-10-16T21:47:52.324Z,1.80
2018-10-16T21:48:52.323Z,2.10
2018-10-16T21:49:52.278Z,1.90
2018-10-16T21:50:52.282Z,1.90
2018-10-16T21:51:52.285Z,1.70
2018-10-16T21:52:52.315Z,2.10
2018-10-16T21:53:52.295Z,1.70
2018-10-16T21:54:52.352Z,1.80
2018-10-16T21:55:52.300Z,2.00
2018-10-16T21:56:52.309Z,2.10
2018-10-16T21:57:52.312Z,1.80
2018-10-16T21:58:52.365Z,2.10
2018-10-16T21:59:52.319Z,1.80
2018-10-16T22:00:52.325Z,2.10
2018-10-16T22:01:52.327Z,2.10
2018-10-16T22:02:52.332Z,1.90
2018-10-16T22:03:52.335Z,2.20
2018-10-16T22:04:52.375Z,2.00
2018-10-16T22:05:52.344Z,2.00
2018-10-16T22:06:52.419Z,2.00
2018-10-16T22:07:52.392Z,2.10
2018-10-16T22:08:52.357Z,2.10
2018-10-16T22:09:52.362Z,1.90
2018-10-16T22:10:52.385Z,2.10
2018-10-16T22:11:52.372Z,2.10
2018-10-16T22:12:52.433Z,2.10
2018-10-16T22:13:52.378Z,2.00
2018-10-16T22:14:52.382Z,2.20
2018-10-16T22:15:52.480Z,1.90
2018-10-16T22:16:52.404Z,2.10
2018-10-16T22:17:52.396Z,1.90
2018-10-16T22:18:52.403Z,2.00
2018-10-16T22:19:52.405Z,2.30
2018-10-16T22:20:52.407Z,2.10
2018-10-16T22:21:52.412Z,2.10
2018-10-16T22:22:52.469Z,2.20
2018-10-16T22:23:52.420Z,2.00
2018-10-16T22:24:52.430Z,2.20
2018-10-16T22:25:52.429Z,2.20
2018-10-16T22:26:52.434Z,2.00
2018-10-16T22:27:52.437Z,2.10
2018-10-16T22:28:52.448Z,2.10
2018-10-16T22:29:52.448Z,2.10
2018-10-16T22:30:52.473Z,2.40
2018-10-16T22:31:52.454Z,2.10
2018-10-16T22:32:52.458Z,2.10
2018-10-16T22:33:52.463Z,2.00
2018-10-16T22:34:52.535Z,2.10
2018-10-16T22:35:52.472Z,1.90
2018-10-16T22:36:52.509Z,2.10
2018-10-16T22:37:52.481Z,2.30
2018-10-16T22:38:52.485Z,2.20
2018-10-16T22:39:52.488Z,2.30
2018-10-16T22:40:52.507Z,2.00
2018-10-16T22:41:52.496Z,2.40
2018-10-16T22:42:52.529Z,2.20
2018-10-16T22:43:52.515Z,2.40
2018-10-16T22:44:52.511Z,2.00
2018-10-16T22:45:52.514Z,2.40
2018-10-16T22:46:52.575Z,2.40
2018-10-16T22:47:52.522Z,2.30
2018-10-16T22:48:52.531Z,2.20
2018-10-16T22:49:52.532Z,2.40
2018-10-16T22:50:52.535Z,2.30
2018-10-16T22:51:52.536Z,2.20
2018-10-16T22:52:52.578Z,2.40
2018-10-16T22:53:52.549Z,2.40
2018-10-16T22:54:52.593Z,2.40
2018-10-16T22:55:52.557Z,2.30
2018-10-16T22:56:52.560Z,2.30
2018-10-16T22:57:52.564Z,2.20
2018-10-16T22:58:52.590Z,2.40
2018-10-16T22:59:52.572Z,2.20
2018-10-16T23:00:52.633Z,2.10
2018-10-16T23:01:52.581Z,2.40
2018-10-16T23:02:52.587Z,2.30
2018-10-16T23:03:52.590Z,2.50
2018-10-16T23:04:52.606Z,2.40
2018-10-16T23:05:52.599Z,2.30
2018-10-16T23:06:52.618Z,2.10
2018-10-16T23:07:52.646Z,2.30
2018-10-16T23:08:52.650Z,2.30
2018-10-16T23:09:52.644Z,2.40
2018-10-16T23:10:52.683Z,2.20
2018-10-16T23:11:52.687Z,2.40
2018-10-16T23:12:52.664Z,2.40
2018-10-16T23:13:52.661Z,2.30
2018-10-16T23:14:52.666Z,2.40
2018-10-16T23:15:52.674Z,2.40
2018-10-16T23:16:52.735Z,2.30
2018-10-16T23:17:52.716Z,2.40
2018-10-16T23:18:52.745Z,2.20
2018-10-16T23:19:52.726Z,2.10
2018-10-16T23:20:52.694Z,2.60
2018-10-16T23:21:52.695Z,2.50
2018-10-16T23:22:52.701Z,2.30
2018-10-16T23:23:52.704Z,2.40
2018-10-16T23:24:52.798Z,2.20
2018-10-16T23:25:52.712Z,2.60
2018-10-16T23:26:52.718Z,2.50
2018-10-16T23:27:52.724Z,2.30
2018-10-16T23:28:52.726Z,2.40
2018-10-16T23:29:52.731Z,2.30
2018-10-16T23:30:52.795Z,2.50
2018-10-16T23:31:52.740Z,2.60
2018-10-16T23:32:52.743Z,2.60
2018-10-16T23:33:52.746Z,2.50
2018-10-16T23:34:52.761Z,2.50
2018-10-16T23:35:52.758Z,2.60
2018-10-16T23:36:52.807Z,2.40
2018-10-16T23:37:52.763Z,2.90
2018-10-16T23:38:52.768Z,2.50
2018-10-16T23:39:52.771Z,2.70
2018-10-16T23:40:52.847Z,2.70
2018-10-16T23:41:52.781Z,2.70
2018-10-16T23:42:52.789Z,2.40
2018-10-16T23:43:52.794Z,2.50
2018-10-16T23:44:52.795Z,2.60
2018-10-16T23:45:52.914Z,2.70
2018-10-16T23:46:52.826Z,2.50
2018-10-16T23:47:52.805Z,2.50
2018-10-16T23:48:52.837Z,2.60
2018-10-16T23:49:52.814Z,2.70
2018-10-16T23:50:52.819Z,2.70
2018-10-16T23:51:52.823Z,2.60
2018-10-16T23:52:52.834Z,2.50
2018-10-16T23:53:52.849Z,2.50
2018-10-16T23:54:52.833Z,2.80
2018-10-16T23:55:52.812Z,2.60
2018-10-16T23:56:52.813Z,2.80
2018-10-16T23:57:52.829Z,2.60
2018-10-16T23:58:52.855Z,2.50
2018-10-16T23:59:52.829Z,2.60
